This is the latest recevied weather packets stored in our database for station/object LU8FCJ-5. If no packets are shown the sender has not sent any weather packets the latest 10 day(s).
| Time | Temp. | Humidity | Pressure | Rain* | Wind** | Luminosity | Snow |
|---|---|---|---|---|---|---|---|
| 1777503106 | 12.22° C | 57% | 1013.4 hPa | 0 mm | - | 410 W/m² | - |
| 1777502796 | 14.44° C | 53% | 1013.3 hPa | 0 mm | - | 410 W/m² | - |
| 1777502485 | 14.44° C | 53% | 1013.3 hPa | 0 mm | - | 410 W/m² | - |
| 1777502175 | 15.56° C | 50% | 1013 hPa | 0 mm | - | 410 W/m² | - |
| 1777501864 | 14.44° C | 53% | 1012.9 hPa | 0 mm | - | 410 W/m² | - |
| 1777501554 | 14.44° C | 54% | 1012.9 hPa | 0 mm | - | 300 W/m² | - |
| 1777501245 | 15° C | 51% | 1013 hPa | 0 mm | - | 300 W/m² | - |
| 1777500949 | 15° C | 50% | 1012.7 hPa | 0 mm | - | 300 W/m² | - |
| 1777500629 | 16.11° C | 49% | 1013 hPa | 0 mm | - | 300 W/m² | - |
| 1777500314 | 15.56° C | 49% | 1012.9 hPa | 0 mm | - | 300 W/m² | - |
| 1777500005 | 17.22° C | 47% | 1012.8 hPa | 0 mm | - | 300 W/m² | - |
| 1777499694 | 16.11° C | 47% | 1012.6 hPa | 0 mm | - | 154 W/m² | - |
| 1777499384 | 16.11° C | 46% | 1012.5 hPa | 0 mm | - | 154 W/m² | - |
| 1777499074 | 16.67° C | 45% | 1012.6 hPa | 0 mm | - | 154 W/m² | - |
| 1777498764 | 17.22° C | 45% | 1012.5 hPa | 0 mm | - | 154 W/m² | - |
| 1777498453 | 17.22° C | 45% | 1012.4 hPa | 0 mm | - | 154 W/m² | - |
| 1777498143 | 17.22° C | 44% | 1012.2 hPa | 0 mm | - | 154 W/m² | - |
| 1777497836 | 18.33° C | 42% | 1012 hPa | 0 mm | - | - | - |
| 1777497523 | 18.33° C | 41% | 1012.3 hPa | 0 mm | - | - | - |
| 1777497213 | 18.89° C | 38% | 1012.1 hPa | 0 mm | - | - | - |
| 1777496903 | 19.44° C | 36% | 1012.1 hPa | 0 mm | - | - | - |
| 1777496592 | 20° C | 35% | 1012 hPa | 0 mm | - | - | - |
| 1777496283 | 20.56° C | 36% | 1012.3 hPa | 0 mm | - | - | - |
| 1777495662 | 21.67° C | 33% | 1012.1 hPa | 0 mm | - | - | - |
| 1777495352 | 21.67° C | 33% | 1011.7 hPa | 0 mm | - | - | - |
* Rain latest hour (hover to see other rain measurements)
** Current wind speed in m/s (hover to see current wind gust speed)